Time;durP1;ratioP1;P1;durP2;ratioP2;P2;SDS_P1;SDS_P2;PMS_P1;PMS_P2;Temp;Humidity;BMP_temperature;BMP_pressure;BME280_temperature;BME280_humidity;BME280_pressure;Samples;Min_cycle;Max_cycle;Signal;HPM_P1;HPM_P2
2023/06/17 00:00:59;;;;;;;1999.90;999.90;;;12.30;67.20;;;;;;5036117;28;20403;-85
2023/06/17 00:03:25;;;;;;;1999.90;999.90;;;12.20;66.70;;;;;;5037058;28;20037;-84
2023/06/17 00:05:53;;;;;;;1999.90;999.90;;;12.10;66.40;;;;;;5033044;28;20033;-85
2023/06/17 00:08:20;;;;;;;1999.90;999.90;;;12.10;66.70;;;;;;5037584;28;20033;-85
2023/06/17 00:10:45;;;;;;;1999.90;999.90;;;12.00;66.30;;;;;;5039388;28;20032;-85
2023/06/17 00:13:19;;;;;;;1999.90;999.90;;;12.10;66.10;;;;;;5034300;28;20041;-85
2023/06/17 00:15:47;;;;;;;1999.90;999.90;;;12.10;65.50;;;;;;5041862;28;20031;-85
2023/06/17 00:18:14;;;;;;;1999.90;999.90;;;12.20;65.30;;;;;;5055385;28;20029;-85
2023/06/17 00:20:39;;;;;;;1999.90;999.90;;;12.10;66.60;;;;;;5058684;28;20057;-87
2023/06/17 00:23:06;;;;;;;1999.90;999.90;;;12.00;67.10;;;;;;5053789;28;20015;-85
2023/06/17 00:25:32;;;;;;;1999.90;999.90;;;11.80;67.50;;;;;;5047579;28;19998;-84
2023/06/17 00:27:58;;;;;;;1999.90;999.90;;;11.70;68.10;;;;;;5060269;28;20030;-85
2023/06/17 00:30:23;;;;;;;1999.90;999.90;;;11.60;68.70;;;;;;5060440;28;20033;-85
2023/06/17 00:32:49;;;;;;;1999.90;999.90;;;11.60;68.30;;;;;;5040285;28;20026;-85
2023/06/17 00:35:14;;;;;;;1999.90;999.90;;;11.70;67.20;;;;;;5059911;28;20040;-85
2023/06/17 00:37:40;;;;;;;1999.90;999.90;;;11.70;67.00;;;;;;5055994;28;20030;-85
2023/06/17 00:40:08;;;;;;;1999.90;999.90;;;11.80;68.20;;;;;;5049175;28;20024;-85
2023/06/17 00:42:34;;;;;;;1999.90;999.90;;;11.80;68.00;;;;;;5058785;28;20032;-84
2023/06/17 00:45:00;;;;;;;1999.90;999.90;;;11.80;67.60;;;;;;5055834;28;20033;-84
2023/06/17 00:47:26;;;;;;;1537.43;784.92;;;11.70;68.20;;;;;;5057313;28;20037;-84
2023/06/17 00:49:53;;;;;;;1999.90;999.90;;;11.70;68.60;;;;;;5055378;28;20033;-84
2023/06/17 00:52:20;;;;;;;1999.90;999.90;;;11.70;68.10;;;;;;5052036;28;20048;-85
2023/06/17 00:54:46;;;;;;;1999.90;999.90;;;11.70;68.30;;;;;;5057904;28;20020;-84
2023/06/17 00:57:15;;;;;;;1999.90;999.90;;;11.60;68.00;;;;;;5054326;28;20049;-85
2023/06/17 00:59:43;;;;;;;1999.90;999.90;;;11.60;68.30;;;;;;5053753;28;20033;-84
2023/06/17 01:02:11;;;;;;;1999.90;999.90;;;11.50;68.40;;;;;;5060505;28;20043;-85
2023/06/17 01:04:40;;;;;;;1999.90;999.90;;;11.40;69.00;;;;;;5053867;28;20033;-85
2023/06/17 01:07:16;;;;;;;1999.90;999.90;;;11.40;69.20;;;;;;5037366;28;20482;-85
2023/06/17 01:09:47;;;;;;;322.60;303.15;;;11.40;69.90;;;;;;5037287;28;20048;-84
2023/06/17 01:12:14;;;;;;;453.45;428.30;;;11.40;70.00;;;;;;5035209;28;20025;-85
2023/06/17 01:14:42;;;;;;;493.73;466.70;;;11.40;70.40;;;;;;5015044;28;20033;-87
2023/06/17 01:17:12;;;;;;;512.97;485.63;;;11.40;70.40;;;;;;5030159;28;20042;-87
2023/06/17 01:19:39;;;;;;;476.75;452.65;;;11.40;70.10;;;;;;5038276;28;20408;-89
2023/06/17 01:22:11;;;;;;;493.65;469.95;;;11.40;70.40;;;;;;5036899;28;20150;-84
2023/06/17 01:24:37;;;;;;;497.83;473.27;;;11.30;70.60;;;;;;5037087;28;20075;-85
2023/06/17 01:27:03;;;;;;;515.10;490.08;;;11.30;71.20;;;;;;5038120;28;20017;-85
2023/06/17 01:29:30;;;;;;;504.08;479.90;;;11.20;70.80;;;;;;5034403;28;20083;-86
2023/06/17 01:31:57;;;;;;;505.50;480.63;;;11.10;71.80;;;;;;5036779;28;20102;-87
2023/06/17 01:34:47;;;;;;;508.73;484.20;;;11.10;71.80;;;;;;5033253;28;20025;-87
2023/06/17 01:37:16;;;;;;;487.77;464.23;;;11.10;72.00;;;;;;5033700;28;20025;-87
2023/06/17 01:39:44;;;;;;;518.22;493.50;;;11.00;72.20;;;;;;5039636;28;20756;-87
2023/06/17 01:42:18;;;;;;;528.05;502.98;;;11.00;72.90;;;;;;5033828;28;20037;-87
2023/06/17 01:44:45;;;;;;;518.05;493.33;;;11.00;73.30;;;;;;5033636;28;20025;-87
2023/06/17 01:47:11;;;;;;;544.05;518.35;;;10.90;73.60;;;;;;5034671;28;20033;-87
2023/06/17 01:49:37;;;;;;;515.28;492.27;;;10.90;73.70;;;;;;5033726;28;20501;-87
2023/06/17 01:52:04;;;;;;;486.15;464.65;;;10.90;73.90;;;;;;5037715;28;20026;-87
2023/06/17 01:54:30;;;;;;;496.20;474.05;;;10.80;73.70;;;;;;5035442;28;20112;-87
2023/06/17 01:56:55;;;;;;;526.17;502.13;;;10.80;73.70;;;;;;5035000;28;20112;-88
2023/06/17 01:59:21;;;;;;;516.65;493.40;;;10.90;73.20;;;;;;5035452;28;20037;-87
2023/06/17 02:01:46;;;;;;;501.73;479.45;;;10.90;73.50;;;;;;5032357;28;20092;-88
2023/06/17 02:04:12;;;;;;;513.05;490.42;;;10.90;73.80;;;;;;5017808;28;20036;-87
2023/06/17 02:06:39;;;;;;;496.70;474.27;;;10.80;73.80;;;;;;5036778;28;20033;-87
2023/06/17 02:09:05;;;;;;;469.02;448.75;;;10.90;73.40;;;;;;5031493;28;20039;-87
2023/06/17 02:11:31;;;;;;;468.88;448.27;;;10.80;73.50;;;;;;5037504;28;20022;-87
2023/06/17 02:13:57;;;;;;;445.85;426.85;;;10.70;74.00;;;;;;5012415;28;20088;-87
2023/06/17 02:16:23;;;;;;;424.48;406.83;;;10.70;75.20;;;;;;5031096;28;20035;-87
2023/06/17 02:18:52;;;;;;;421.98;404.20;;;10.60;75.00;;;;;;5037034;28;20037;-87
2023/06/17 02:21:18;;;;;;;415.77;398.80;;;10.50;75.20;;;;;;5033165;28;20049;-87
2023/06/17 02:23:48;;;;;;;412.75;395.92;;;10.50;75.80;;;;;;5035223;28;20553;-87
2023/06/17 02:26:15;;;;;;;388.23;372.40;;;10.40;75.90;;;;;;5035340;28;20032;-87
2023/06/17 02:28:42;;;;;;;393.33;377.35;;;10.40;76.30;;;;;;5032280;28;20037;-87
2023/06/17 02:31:08;;;;;;;394.88;378.63;;;10.40;76.60;;;;;;5039220;28;20104;-88
2023/06/17 02:33:34;;;;;;;382.20;367.15;;;10.40;77.00;;;;;;5015705;28;20030;-87
2023/06/17 02:36:00;;;;;;;361.55;347.15;;;10.40;77.30;;;;;;5036833;28;20036;-87
2023/06/17 02:38:26;;;;;;;380.63;365.38;;;10.40;77.60;;;;;;5033553;28;20034;-88
2023/06/17 02:40:52;;;;;;;372.58;357.90;;;10.40;77.90;;;;;;5046722;28;20037;-87
2023/06/17 02:43:18;;;;;;;362.08;347.30;;;10.40;77.90;;;;;;5038835;28;20041;-87
2023/06/17 02:45:43;;;;;;;341.23;327.50;;;10.40;78.20;;;;;;5035408;28;20025;-87
2023/06/17 02:48:09;;;;;;;329.50;316.48;;;10.40;77.90;;;;;;5029704;28;20086;-87
2023/06/17 02:50:35;;;;;;;341.05;327.13;;;10.40;78.50;;;;;;5035054;28;20112;-87
2023/06/17 02:53:04;;;;;;;319.05;306.83;;;10.40;78.70;;;;;;5028505;28;20037;-87
2023/06/17 02:55:30;;;;;;;246.10;237.00;;;10.40;79.50;;;;;;5029350;28;20034;-88
2023/06/17 02:57:55;;;;;;;299.52;287.75;;;10.40;79.60;;;;;;5039956;28;20044;-87
2023/06/17 03:00:21;;;;;;;291.95;280.92;;;10.50;79.40;;;;;;5028429;28;20033;-87
2023/06/17 03:02:48;;;;;;;311.25;299.15;;;10.50;79.70;;;;;;5019071;28;20042;-87
2023/06/17 03:05:14;;;;;;;315.92;303.40;;;10.50;79.40;;;;;;5029894;28;20104;-87
2023/06/17 03:07:40;;;;;;;285.65;274.60;;;10.50;79.80;;;;;;5033204;28;20044;-87
2023/06/17 03:10:07;;;;;;;265.55;255.18;;;10.40;79.70;;;;;;5039167;28;20569;-87
2023/06/17 03:12:32;;;;;;;310.08;297.65;;;10.30;80.30;;;;;;5030697;28;20112;-87
2023/06/17 03:14:58;;;;;;;307.83;295.38;;;10.30;80.70;;;;;;5024723;28;20151;-87
2023/06/17 03:17:24;;;;;;;261.52;250.98;;;10.20;80.70;;;;;;5036158;28;20033;-87
2023/06/17 03:19:51;;;;;;;271.33;260.73;;;10.30;80.10;;;;;;5030812;28;20027;-88
2023/06/17 03:22:17;;;;;;;226.20;217.40;;;10.30;79.80;;;;;;5032241;28;20048;-88
2023/06/17 03:24:42;;;;;;;247.98;237.93;;;10.40;78.90;;;;;;5032257;28;20068;-87
2023/06/17 03:27:08;;;;;;;250.32;240.23;;;10.30;78.60;;;;;;5029735;28;20034;-87
2023/06/17 03:29:36;;;;;;;241.48;231.82;;;10.40;78.30;;;;;;5036549;28;20515;-88
2023/06/17 03:32:02;;;;;;;226.15;217.45;;;10.40;78.20;;;;;;5032088;28;20060;-88
2023/06/17 03:34:28;;;;;;;224.88;216.30;;;10.50;77.30;;;;;;5029783;28;20413;-87
2023/06/17 03:36:56;;;;;;;227.20;217.98;;;10.50;76.60;;;;;;5034767;28;20040;-87
2023/06/17 03:39:22;;;;;;;223.30;214.73;;;10.50;76.40;;;;;;5032463;28;20025;-88
2023/06/17 03:41:48;;;;;;;220.63;212.25;;;10.50;76.50;;;;;;5041401;28;20037;-90
2023/06/17 03:44:13;;;;;;;244.23;234.75;;;10.40;76.70;;;;;;5036886;28;20025;-87
2023/06/17 03:46:39;;;;;;;235.80;226.35;;;10.50;77.10;;;;;;5040399;28;20038;-88
2023/06/17 03:49:05;;;;;;;239.85;230.55;;;10.50;77.00;;;;;;5041042;28;20481;-87
2023/06/17 03:51:31;;;;;;;260.77;250.88;;;10.50;77.00;;;;;;5034107;28;20029;-88
2023/06/17 03:53:56;;;;;;;268.27;257.85;;;10.50;77.00;;;;;;5040102;28;20024;-87
2023/06/17 03:56:22;;;;;;;257.02;246.50;;;10.50;77.40;;;;;;5037895;28;20040;-87
2023/06/17 03:58:48;;;;;;;290.52;279.52;;;10.50;77.50;;;;;;5035612;28;20040;-87
2023/06/17 04:01:14;;;;;;;273.48;262.70;;;10.60;77.70;;;;;;5057125;28;20037;-88
2023/06/17 04:03:41;;;;;;;272.33;261.90;;;10.60;77.20;;;;;;5035820;28;20037;-87
2023/06/17 04:06:07;;;;;;;264.42;253.10;;;10.60;77.00;;;;;;5035162;28;20037;-88
2023/06/17 04:08:35;;;;;;;243.30;233.52;;;10.70;77.00;;;;;;5043520;28;20062;-88
2023/06/17 04:11:01;;;;;;;250.27;240.63;;;10.70;76.70;;;;;;5032297;28;20061;-88
2023/06/17 04:13:27;;;;;;;237.75;228.25;;;10.80;76.30;;;;;;5034449;28;20030;-87
2023/06/17 04:15:55;;;;;;;281.90;270.80;;;10.90;75.80;;;;;;5033924;28;20037;-87
2023/06/17 04:18:20;;;;;;;276.48;265.52;;;10.90;76.00;;;;;;5036539;28;20493;-87
2023/06/17 04:20:49;;;;;;;282.90;271.70;;;10.90;75.80;;;;;;5038764;28;20043;-87
2023/06/17 04:23:14;;;;;;;263.33;252.98;;;11.00;75.90;;;;;;5035596;28;20510;-87
2023/06/17 04:25:40;;;;;;;269.83;259.02;;;11.00;75.90;;;;;;5032531;28;20037;-87
2023/06/17 04:28:07;;;;;;;260.45;250.07;;;11.10;75.20;;;;;;5035814;28;20113;-87
2023/06/17 04:30:33;;;;;;;258.75;248.63;;;11.10;75.10;;;;;;5032180;28;20469;-87
2023/06/17 04:33:00;;;;;;;222.15;213.40;;;11.20;75.10;;;;;;5030526;28;20037;-87
2023/06/17 04:35:26;;;;;;;222.63;213.55;;;11.20;74.50;;;;;;5034400;28;20772;-87
2023/06/17 04:37:55;;;;;;;226.10;216.90;;;11.30;74.10;;;;;;5020304;28;20041;-87
2023/06/17 04:40:25;;;;;;;236.98;227.93;;;11.40;74.10;;;;;;5034174;28;20036;-88
2023/06/17 04:42:51;;;;;;;234.32;225.23;;;11.50;73.90;;;;;;5036886;28;20029;-87
2023/06/17 04:45:17;;;;;;;240.50;230.88;;;11.60;73.20;;;;;;5036551;28;20518;-87
2023/06/17 04:47:46;;;;;;;241.13;231.48;;;11.80;73.40;;;;;;5039216;28;20034;-86
2023/06/17 04:50:15;;;;;;;218.35;209.88;;;11.80;72.90;;;;;;5033334;28;20037;-88
2023/06/17 04:52:47;;;;;;;226.18;217.43;;;11.90;72.80;;;;;;5037512;28;20029;-87
2023/06/17 04:55:13;;;;;;;239.10;229.55;;;12.00;73.00;;;;;;5015857;28;20440;-87
2023/06/17 04:57:42;;;;;;;215.63;207.15;;;12.10;72.90;;;;;;5035795;28;20128;-88
2023/06/17 05:00:10;;;;;;;240.95;231.27;;;12.20;72.30;;;;;;5038489;28;20382;-88
2023/06/17 05:02:37;;;;;;;230.55;221.40;;;12.30;72.40;;;;;;5032262;28;20017;-87
2023/06/17 05:05:07;;;;;;;254.82;244.68;;;12.40;71.90;;;;;;5031889;28;20037;-88
2023/06/17 05:07:33;;;;;;;248.38;238.63;;;12.50;72.70;;;;;;5040169;28;20029;-89
2023/06/17 05:09:59;;;;;;;236.95;227.60;;;12.60;71.60;;;;;;5032222;28;20045;-88
2023/06/17 05:12:25;;;;;;;250.45;240.50;;;12.80;71.60;;;;;;5038987;28;20370;-85
2023/06/17 05:14:50;;;;;;;257.40;247.18;;;12.90;71.40;;;;;;5036359;28;20078;-87
2023/06/17 05:17:16;;;;;;;263.92;253.27;;;13.10;71.50;;;;;;5035207;28;20033;-86
2023/06/17 05:19:42;;;;;;;237.98;228.43;;;13.20;71.00;;;;;;5038874;28;20056;-87
2023/06/17 05:22:07;;;;;;;220.25;211.77;;;13.30;70.60;;;;;;5032278;28;20077;-86
2023/06/17 05:24:33;;;;;;;240.48;231.40;;;13.40;68.70;;;;;;5037202;28;20033;-86
2023/06/17 05:27:00;;;;;;;220.15;211.82;;;13.60;69.80;;;;;;5037099;28;20468;-86
2023/06/17 05:29:25;;;;;;;248.80;238.98;;;13.70;68.70;;;;;;5032600;28;20635;-86
2023/06/17 05:31:51;;;;;;;242.63;233.20;;;13.90;68.40;;;;;;5038742;28;20088;-87
2023/06/17 05:34:17;;;;;;;242.32;233.02;;;14.00;67.60;;;;;;5026198;28;20505;-86
2023/06/17 05:36:43;;;;;;;248.02;238.48;;;14.10;67.50;;;;;;5030793;28;20041;-86
2023/06/17 05:39:08;;;;;;;258.00;247.82;;;14.20;67.50;;;;;;5030666;28;20144;-86
2023/06/17 05:41:34;;;;;;;252.25;242.35;;;14.30;67.10;;;;;;5015096;28;20034;-87
2023/06/17 05:44:00;;;;;;;264.48;253.63;;;14.40;67.20;;;;;;5036826;28;20095;-87
2023/06/17 05:46:26;;;;;;;265.50;255.13;;;14.50;66.90;;;;;;5037355;28;20039;-86
2023/06/17 05:48:51;;;;;;;273.73;263.15;;;14.60;66.70;;;;;;5033743;28;20425;-86
2023/06/17 05:51:17;;;;;;;285.67;274.25;;;14.70;67.60;;;;;;5040632;28;20051;-87
2023/06/17 05:53:43;;;;;;;300.95;289.00;;;14.80;67.00;;;;;;5034763;28;20040;-87
2023/06/17 05:56:09;;;;;;;254.18;244.05;;;15.00;66.20;;;;;;5028203;28;20043;-86
2023/06/17 05:58:35;;;;;;;296.33;284.38;;;15.10;65.20;;;;;;5033398;28;20029;-87
2023/06/17 06:01:01;;;;;;;312.55;299.77;;;15.20;66.50;;;;;;5031066;28;20032;-87
2023/06/17 06:03:26;;;;;;;308.15;295.65;;;15.40;67.40;;;;;;5030226;28;20500;-90
2023/06/17 06:05:52;;;;;;;313.20;300.70;;;15.60;65.90;;;;;;5031540;28;20033;-88
2023/06/17 06:08:17;;;;;;;337.95;324.15;;;15.70;64.80;;;;;;5028900;28;20045;-87
2023/06/17 06:10:43;;;;;;;328.63;315.70;;;15.80;65.90;;;;;;5028149;28;20099;-87
2023/06/17 06:13:09;;;;;;;336.88;323.20;;;16.00;63.00;;;;;;5032679;28;20128;-87
2023/06/17 06:15:34;;;;;;;335.73;322.08;;;16.00;61.70;;;;;;5038520;28;20060;-87
2023/06/17 06:18:00;;;;;;;358.50;344.38;;;16.30;63.10;;;;;;5014493;28;20033;-88
2023/06/17 06:20:27;;;;;;;288.40;276.80;;;16.40;62.20;;;;;;5033058;28;20076;-89
2023/06/17 06:22:52;;;;;;;282.75;271.80;;;16.40;60.20;;;;;;5033968;28;20034;-94
2023/06/17 06:25:18;;;;;;;325.67;312.38;;;16.40;60.30;;;;;;5036620;28;20079;-95
2023/06/17 06:27:44;;;;;;;331.92;318.23;;;16.40;61.10;;;;;;5038893;28;20029;-90
2023/06/17 06:30:12;;;;;;;356.60;342.08;;;16.60;60.70;;;;;;5021059;28;20044;-94
2023/06/17 06:32:37;;;;;;;321.50;308.55;;;16.80;61.40;;;;;;5030661;28;20033;-94
2023/06/17 06:35:04;;;;;;;299.75;287.60;;;17.00;60.30;;;;;;5036714;28;20030;-96
2023/06/17 06:37:30;;;;;;;411.27;393.70;;;17.10;60.40;;;;;;5039637;28;20041;-92
2023/06/17 06:39:55;;;;;;;369.08;352.67;;;17.30;60.50;;;;;;5029161;28;20033;-95
2023/06/17 06:42:21;;;;;;;412.02;394.40;;;17.40;59.30;;;;;;5045015;28;20099;-88
2023/06/17 06:44:48;;;;;;;393.17;376.35;;;17.60;62.20;;;;;;5036962;28;20033;-89
2023/06/17 06:47:14;;;;;;;494.33;471.33;;;17.60;58.80;;;;;;5029427;28;20037;-88
2023/06/17 06:49:39;;;;;;;474.75;453.65;;;17.70;58.60;;;;;;5032284;28;20026;-89
2023/06/17 06:52:05;;;;;;;462.50;441.55;;;17.90;61.00;;;;;;5031109;28;20084;-88
2023/06/17 06:54:31;;;;;;;597.63;567.70;;;18.00;59.70;;;;;;5032795;28;20033;-88
2023/06/17 06:56:57;;;;;;;627.15;595.72;;;18.00;57.10;;;;;;5034405;28;20482;-88
2023/06/17 06:59:22;;;;;;;646.92;614.42;;;18.20;56.80;;;;;;5031940;28;20034;-89
2023/06/17 07:01:48;;;;;;;645.15;612.22;;;18.40;57.10;;;;;;5032007;28;20456;-88
2023/06/17 07:04:14;;;;;;;658.08;623.85;;;18.60;56.90;;;;;;5003056;28;20128;-88
2023/06/17 07:06:40;;;;;;;765.25;719.15;;;18.70;56.70;;;;;;5027299;28;20025;-87
2023/06/17 07:09:06;;;;;;;687.70;650.50;;;18.80;53.50;;;;;;5032474;28;20086;-89
2023/06/17 07:11:35;;;;;;;1611.20;852.92;;;18.80;56.30;;;;;;5033346;28;20079;-87
2023/06/17 07:14:00;;;;;;;1617.50;858.65;;;19.00;53.60;;;;;;5039998;28;20508;-88
2023/06/17 07:16:26;;;;;;;656.10;617.65;;;19.20;52.60;;;;;;5038296;28;20040;-88
2023/06/17 07:18:51;;;;;;;675.17;629.83;;;19.40;54.20;;;;;;5032182;28;20041;-87
2023/06/17 07:21:17;;;;;;;1999.90;999.90;;;19.60;54.70;;;;;;5036374;28;20198;-88
2023/06/17 07:23:43;;;;;;;1999.90;999.90;;;19.70;51.10;;;;;;5040771;28;20026;-86
2023/06/17 07:26:08;;;;;;;1999.90;999.90;;;19.80;52.30;;;;;;5037852;28;20600;-86
2023/06/17 07:28:34;;;;;;;1999.90;999.90;;;19.90;51.20;;;;;;5040529;28;20038;-85
2023/06/17 07:31:00;;;;;;;1999.90;999.90;;;19.90;53.00;;;;;;5034792;28;20048;-85
2023/06/17 07:33:26;;;;;;;1999.90;999.90;;;19.70;51.20;;;;;;5036455;28;20040;-86
2023/06/17 07:35:51;;;;;;;1999.90;999.90;;;19.80;52.00;;;;;;5036642;28;20061;-85
2023/06/17 07:38:18;;;;;;;1999.90;999.90;;;19.90;52.60;;;;;;5036964;28;20053;-84
2023/06/17 07:40:46;;;;;;;1999.90;999.90;;;20.00;51.30;;;;;;5042452;28;20049;-89
2023/06/17 07:43:12;;;;;;;1999.90;999.90;;;19.90;51.60;;;;;;5043220;28;20041;-94
2023/06/17 07:45:38;;;;;;;1999.90;999.90;;;20.00;51.60;;;;;;5050494;28;20135;-93
2023/06/17 07:48:04;;;;;;;1999.90;999.90;;;20.50;52.50;;;;;;5039188;28;20026;-95
2023/06/17 07:50:30;;;;;;;1999.90;999.90;;;20.80;51.90;;;;;;5041753;28;20048;-94
2023/06/17 07:52:57;;;;;;;1999.90;999.90;;;20.80;52.40;;;;;;5051403;28;20021;-95
2023/06/17 07:55:22;;;;;;;1999.90;999.90;;;21.00;51.10;;;;;;5025061;28;20061;-92
2023/06/17 07:57:48;;;;;;;1999.90;999.90;;;21.00;46.60;;;;;;5031520;28;20064;-82
2023/06/17 08:00:14;;;;;;;1999.90;999.90;;;21.30;49.60;;;;;;5040259;28;20504;-83
2023/06/17 08:02:41;;;;;;;1999.90;999.90;;;21.40;48.10;;;;;;5033998;28;20080;-82
2023/06/17 08:05:08;;;;;;;1999.90;999.90;;;21.70;45.20;;;;;;5038245;28;20064;-82
2023/06/17 08:07:34;;;;;;;1999.90;999.90;;;21.70;46.00;;;;;;5038820;28;20025;-81
2023/06/17 08:10:00;;;;;;;1999.90;999.90;;;21.70;43.70;;;;;;5036825;28;20022;-82
2023/06/17 08:12:29;;;;;;;1999.90;999.90;;;21.90;45.20;;;;;;5038666;28;20036;-81
2023/06/17 08:14:54;;;;;;;1999.90;999.90;;;22.00;42.30;;;;;;5031790;28;20033;-82
2023/06/17 08:17:20;;;;;;;1999.90;999.90;;;22.30;43.10;;;;;;5036463;28;20523;-82
2023/06/17 08:19:46;;;;;;;1999.90;999.90;;;22.40;41.50;;;;;;5037404;28;20036;-82
2023/06/17 08:22:12;;;;;;;1999.90;999.90;;;22.40;44.20;;;;;;5032468;28;20053;-84
2023/06/17 08:24:38;;;;;;;1999.90;999.90;;;22.60;39.90;;;;;;5038802;28;20087;-80
2023/06/17 08:27:05;;;;;;;1999.90;999.90;;;22.70;40.20;;;;;;5036965;28;20113;-81
2023/06/17 08:29:31;;;;;;;1999.90;999.90;;;22.70;39.00;;;;;;5017939;28;20563;-80
2023/06/17 08:31:57;;;;;;;1999.90;999.90;;;23.30;40.70;;;;;;5032292;28;20033;-80
2023/06/17 08:34:23;;;;;;;1999.90;999.90;;;23.20;36.50;;;;;;5035322;28;20457;-81
2023/06/17 08:36:53;;;;;;;1999.90;999.90;;;23.30;37.10;;;;;;5033652;28;20061;-81
2023/06/17 08:39:19;;;;;;;1999.90;999.90;;;23.20;36.70;;;;;;5038212;28;20033;-81
2023/06/17 08:41:45;;;;;;;1999.90;999.90;;;23.30;36.90;;;;;;5017293;28;20143;-83
2023/06/17 08:44:13;;;;;;;1999.90;999.90;;;23.40;37.70;;;;;;5035278;28;20033;-82
2023/06/17 08:46:44;;;;;;;1999.90;999.90;;;23.80;36.60;;;;;;5022110;28;20026;-83
2023/06/17 08:49:14;;;;;;;1999.90;999.90;;;23.70;37.30;;;;;;5016566;28;20036;-83
2023/06/17 08:51:40;;;;;;;1999.90;999.90;;;24.00;33.90;;;;;;5037800;28;20022;-82
2023/06/17 08:54:06;;;;;;;1999.90;999.90;;;24.10;34.90;;;;;;5034467;28;20565;-79
2023/06/17 08:56:33;;;;;;;1999.90;999.90;;;24.10;34.80;;;;;;5030959;28;20057;-81
2023/06/17 08:58:59;;;;;;;1999.90;999.90;;;24.30;33.00;;;;;;5041069;28;20040;-81
2023/06/17 09:01:26;;;;;;;1999.90;999.90;;;24.30;30.90;;;;;;5031084;28;20025;-81
2023/06/17 09:03:53;;;;;;;1999.90;999.90;;;24.30;31.80;;;;;;5035370;28;20072;-82
2023/06/17 09:06:27;;;;;;;1999.90;999.90;;;24.70;33.70;;;;;;5035217;28;20036;-80
2023/06/17 09:08:55;;;;;;;1999.90;999.90;;;24.80;33.50;;;;;;5028993;28;20029;-82
2023/06/17 09:11:23;;;;;;;1999.90;999.90;;;24.50;30.80;;;;;;5036791;28;20121;-81
2023/06/17 09:13:56;;;;;;;1999.90;999.90;;;24.40;29.10;;;;;;5015019;28;20492;-81
2023/06/17 09:16:36;;;;;;;1999.90;999.90;;;24.20;29.60;;;;;;5036963;28;20033;-82
2023/06/17 09:19:04;;;;;;;1999.90;999.90;;;24.40;28.90;;;;;;5034982;28;20036;-82
2023/06/17 09:21:30;;;;;;;1999.90;999.90;;;24.30;29.30;;;;;;5034654;28;20068;-80
2023/06/17 09:24:00;;;;;;;1999.90;999.90;;;24.30;28.80;;;;;;5033790;28;20501;-81
2023/06/17 09:26:31;;;;;;;1999.90;999.90;;;24.20;27.50;;;;;;5031259;28;20018;-80
2023/06/17 09:29:01;;;;;;;1999.90;999.90;;;24.80;26.50;;;;;;5031661;28;20087;-82
2023/06/17 09:31:28;;;;;;;1999.90;999.90;;;24.80;26.30;;;;;;5029688;28;20401;-79
2023/06/17 09:33:54;;;;;;;1999.90;999.90;;;25.40;27.10;;;;;;5032575;28;20428;-79
2023/06/17 09:36:21;;;;;;;1999.90;999.90;;;25.70;24.50;;;;;;5030660;28;20078;-82
2023/06/17 09:38:47;;;;;;;1999.90;999.90;;;26.00;25.20;;;;;;5011501;28;20124;-82
2023/06/17 09:41:14;;;;;;;1999.90;999.90;;;25.30;25.40;;;;;;5028866;28;20064;-82
2023/06/17 09:43:41;;;;;;;1999.90;999.90;;;25.30;24.00;;;;;;5034041;28;20696;-83
2023/06/17 09:46:09;;;;;;;1999.90;999.90;;;25.70;26.20;;;;;;5017959;28;20025;-83
2023/06/17 09:48:39;;;;;;;1999.90;999.90;;;26.30;26.10;;;;;;5037850;28;20021;-81
2023/06/17 09:51:09;;;;;;;1999.90;999.90;;;26.30;25.30;;;;;;5035140;28;20040;-81
2023/06/17 09:53:35;;;;;;;;;;;26.40;24.00;;;;;;5035762;28;20315;-82
2023/06/17 09:56:02;;;;;;;1999.90;999.90;;;26.30;23.20;;;;;;5037674;28;19919;-83
2023/06/17 09:58:30;;;;;;;1999.90;999.90;;;25.80;23.80;;;;;;5049797;28;20037;-87
2023/06/17 10:01:04;;;;;;;1999.90;999.90;;;25.70;23.50;;;;;;5024305;28;20071;-83
2023/06/17 10:03:34;;;;;;;1999.90;999.90;;;26.20;25.20;;;;;;5039603;28;20037;-90
2023/06/17 10:06:05;;;;;;;;;;;25.80;25.30;;;;;;5033823;28;20515;-85
2023/06/17 10:08:34;;;;;;;1999.90;999.90;;;25.30;24.70;;;;;;5037584;28;19999;-90
2023/06/17 10:11:07;;;;;;;1999.90;999.90;;;25.00;24.60;;;;;;5040583;28;20036;-91
2023/06/17 10:13:38;;;;;;;1999.90;999.90;;;25.30;24.60;;;;;;5042195;28;20036;-91
2023/06/17 10:16:09;;;;;;;1999.90;999.90;;;25.90;24.00;;;;;;5031993;28;20034;-91
2023/06/17 10:18:37;;;;;;;1999.90;999.90;;;26.10;23.60;;;;;;5039577;28;20029;-90
2023/06/17 10:21:05;;;;;;;1999.90;999.90;;;25.70;22.60;;;;;;5019161;28;20060;-89
2023/06/17 10:23:32;;;;;;;1999.90;999.90;;;25.50;23.30;;;;;;5039013;28;20130;-91
2023/06/17 10:26:00;;;;;;;1999.90;999.90;;;25.60;24.40;;;;;;5040757;28;20032;-92
2023/06/17 10:29:02;;;;;;;1999.90;999.90;;;25.40;24.80;;;;;;5039356;28;20034;-92
2023/06/17 10:31:33;;;;;;;1999.90;999.90;;;25.30;25.80;;;;;;5034592;28;20033;-91
2023/06/17 10:34:01;;;;;;;1999.90;999.90;;;25.00;25.10;;;;;;5038408;28;20036;-91
2023/06/17 10:36:28;;;;;;;1999.90;999.90;;;25.00;24.30;;;;;;5040067;28;20041;-92
2023/06/17 10:38:55;;;;;;;1999.90;999.90;;;24.90;25.10;;;;;;5034336;28;20029;-91
2023/06/17 10:41:21;;;;;;;1999.90;999.90;;;25.50;26.10;;;;;;5040122;28;20036;-91
2023/06/17 10:43:49;;;;;;;1999.90;999.90;;;25.60;25.40;;;;;;5024289;28;20097;-91
2023/06/17 10:46:23;;;;;;;1999.90;999.90;;;26.50;24.30;;;;;;5030482;28;20029;-91
2023/06/17 10:48:49;;;;;;;1999.90;999.90;;;26.00;23.00;;;;;;5021709;28;20624;-92
2023/06/17 10:51:15;;;;;;;1999.90;999.90;;;26.20;24.20;;;;;;5040588;28;20037;-91
2023/06/17 10:53:48;;;;;;;1999.90;999.90;;;25.70;22.90;;;;;;5048031;28;20542;-91
2023/06/17 10:56:15;;;;;;;1999.90;999.90;;;26.30;25.30;;;;;;5043455;28;20035;-92
2023/06/17 10:58:46;;;;;;;1999.90;999.90;;;26.90;24.50;;;;;;5045425;28;20053;-91
2023/06/17 11:01:12;;;;;;;1999.90;999.90;;;26.70;22.20;;;;;;5033056;28;20073;-91
2023/06/17 11:03:38;;;;;;;1999.90;999.90;;;26.90;23.50;;;;;;5040011;28;20041;-92
2023/06/17 11:06:05;;;;;;;1999.90;999.90;;;27.60;22.80;;;;;;5050709;28;20026;-93
2023/06/17 11:08:33;;;;;;;1999.90;999.90;;;27.10;22.50;;;;;;5048435;28;20048;-92
2023/06/17 11:11:25;;;;;;;1999.90;999.90;;;27.90;22.20;;;;;;5047310;28;20032;-91
2023/06/17 11:13:51;;;;;;;1999.90;999.90;;;28.70;20.60;;;;;;5034318;28;20106;-93
2023/06/17 11:16:18;;;;;;;1999.90;999.90;;;29.50;23.30;;;;;;5052128;28;20037;-90
2023/06/17 11:18:47;;;;;;;1999.90;999.90;;;30.10;18.70;;;;;;5039408;28;20041;-91
2023/06/17 11:21:15;;;;;;;1999.90;999.90;;;29.90;18.60;;;;;;5025148;28;20244;-89
2023/06/17 11:23:43;;;;;;;1999.90;999.90;;;29.10;18.10;;;;;;5033587;28;20060;-93
2023/06/17 11:26:09;;;;;;;1999.90;999.90;;;27.50;20.80;;;;;;5041240;28;20032;-91
2023/06/17 11:28:37;;;;;;;1999.90;999.90;;;27.20;20.40;;;;;;5038821;28;20037;-91
2023/06/17 11:31:03;;;;;;;1999.90;999.90;;;26.30;23.20;;;;;;5025999;28;20037;-91
2023/06/17 11:33:30;;;;;;;1999.90;999.90;;;26.10;21.90;;;;;;5022698;28;20056;-93
2023/06/17 11:35:57;;;;;;;1999.90;999.90;;;27.10;22.50;;;;;;5039019;28;20495;-91
2023/06/17 11:38:23;;;;;;;1999.90;999.90;;;28.80;19.20;;;;;;5045031;28;20100;-91
2023/06/17 11:40:56;;;;;;;1999.90;999.90;;;29.60;17.90;;;;;;5025256;28;20040;-93
2023/06/17 11:43:26;;;;;;;1999.90;999.90;;;28.40;19.00;;;;;;5037189;28;20148;-92
2023/06/17 11:45:56;;;;;;;;;;;27.40;20.60;;;;;;5036403;28;20029;-91
2023/06/17 11:48:32;;;;;;;1999.90;999.90;;;27.00;19.70;;;;;;5041717;28;19935;-92
2023/06/17 11:50:58;;;;;;;1999.90;999.90;;;26.80;21.80;;;;;;5041277;28;20443;-92
2023/06/17 11:53:37;;;;;;;1999.90;999.90;;;26.60;23.70;;;;;;5042678;28;20037;-92
2023/06/17 11:56:07;;;;;;;1999.90;999.90;;;26.30;24.10;;;;;;5038139;28;20029;-93
2023/06/17 11:58:38;;;;;;;;;;;27.50;21.40;;;;;;5041255;28;20033;-93
2023/06/17 12:01:04;;;;;;;1999.90;999.90;;;27.90;24.00;;;;;;5041048;28;19967;-89
2023/06/17 12:03:30;;;;;;;1999.90;999.90;;;29.00;21.70;;;;;;5032795;28;20453;-87
2023/06/17 12:05:59;;;;;;;1999.90;999.90;;;30.60;18.50;;;;;;5035551;28;20025;-88